sensor_id;sensor_type;location;lat;lon;timestamp;pressure;altitude;pressure_sealevel;temperature;humidity
59009;BME280;44794;42.652;23.318;2023-07-13T00:00:29;94778.41;;;21.34;77.04
59009;BME280;44794;42.652;23.318;2023-07-13T00:02:55;94783.69;;;21.34;77.61
59009;BME280;44794;42.652;23.318;2023-07-13T00:05:22;94783.69;;;21.34;77.86
59009;BME280;44794;42.652;23.318;2023-07-13T00:07:49;94777.94;;;21.30;78.34
59009;BME280;44794;42.652;23.318;2023-07-13T00:10:15;94770.84;;;21.31;79.04
59009;BME280;44794;42.652;23.318;2023-07-13T00:12:40;94775.13;;;21.32;78.49
59009;BME280;44794;42.652;23.318;2023-07-13T00:15:18;94784.06;;;21.31;78.75
59009;BME280;44794;42.652;23.318;2023-07-13T00:17:57;94779.56;;;21.31;80.44
59009;BME280;44794;42.652;23.318;2023-07-13T00:20:24;94774.19;;;21.25;79.94
59009;BME280;44794;42.652;23.318;2023-07-13T00:22:52;94774.19;;;21.25;80.22
59009;BME280;44794;42.652;23.318;2023-07-13T00:25:22;94767.25;;;21.24;80.50
59009;BME280;44794;42.652;23.318;2023-07-13T00:27:49;94771.56;;;21.17;81.66
59009;BME280;44794;42.652;23.318;2023-07-13T00:30:15;94768.59;;;21.12;83.85
59009;BME280;44794;42.652;23.318;2023-07-13T00:32:41;94765.66;;;21.07;85.45
59009;BME280;44794;42.652;23.318;2023-07-13T00:35:07;94755.13;;;20.99;86.05
59009;BME280;44794;42.652;23.318;2023-07-13T00:37:33;94765.72;;;20.91;89.76
59009;BME280;44794;42.652;23.318;2023-07-13T00:40:01;94763.28;;;20.82;90.36
59009;BME280;44794;42.652;23.318;2023-07-13T00:42:27;94763.25;;;20.74;90.78
59009;BME280;44794;42.652;23.318;2023-07-13T00:47:48;94760.50;;;20.59;93.41
59009;BME280;44794;42.652;23.318;2023-07-13T00:50:16;94765.63;;;20.53;94.15
59009;BME280;44794;42.652;23.318;2023-07-13T00:52:53;94763.84;;;20.45;95.22
59009;BME280;44794;42.652;23.318;2023-07-13T00:55:21;94760.41;;;20.37;95.14
59009;BME280;44794;42.652;23.318;2023-07-13T00:57:47;94761.88;;;20.32;95.50
59009;BME280;44794;42.652;23.318;2023-07-13T01:00:13;94764.22;;;20.27;93.31
59009;BME280;44794;42.652;23.318;2023-07-13T01:02:42;94759.75;;;20.27;93.05
59009;BME280;44794;42.652;23.318;2023-07-13T01:05:12;94758.25;;;20.25;92.72
59009;BME280;44794;42.652;23.318;2023-07-13T01:07:40;94759.25;;;20.24;92.64
59009;BME280;44794;42.652;23.318;2023-07-13T01:10:07;94761.22;;;20.22;92.34
59009;BME280;44794;42.652;23.318;2023-07-13T01:12:33;94752.19;;;20.16;94.80
59009;BME280;44794;42.652;23.318;2023-07-13T01:14:59;94758.94;;;20.27;94.50
59009;BME280;44794;42.652;23.318;2023-07-13T01:17:26;94760.22;;;20.31;94.57
59009;BME280;44794;42.652;23.318;2023-07-13T01:19:52;94749.50;;;20.32;95.25
59009;BME280;44794;42.652;23.318;2023-07-13T01:22:18;94756.59;;;20.32;95.86
59009;BME280;44794;42.652;23.318;2023-07-13T01:24:46;94746.06;;;20.32;96.82
59009;BME280;44794;42.652;23.318;2023-07-13T01:27:15;94739.78;;;20.33;97.17
59009;BME280;44794;42.652;23.318;2023-07-13T01:29:42;94750.34;;;20.33;97.23
59009;BME280;44794;42.652;23.318;2023-07-13T01:32:10;94743.09;;;20.27;97.74
59009;BME280;44794;42.652;23.318;2023-07-13T01:34:36;94755.13;;;20.29;97.26
59009;BME280;44794;42.652;23.318;2023-07-13T01:37:03;94752.63;;;20.28;96.82
59009;BME280;44794;42.652;23.318;2023-07-13T01:39:29;94760.56;;;20.28;96.01
59009;BME280;44794;42.652;23.318;2023-07-13T01:41:54;94744.09;;;20.26;95.96
59009;BME280;44794;42.652;23.318;2023-07-13T01:44:20;94748.03;;;20.30;96.84
59009;BME280;44794;42.652;23.318;2023-07-13T01:46:45;94743.59;;;20.22;100.00
59009;BME280;44794;42.652;23.318;2023-07-13T01:49:11;94745.75;;;20.11;100.00
59009;BME280;44794;42.652;23.318;2023-07-13T01:51:37;94734.41;;;19.94;100.00
59009;BME280;44794;42.652;23.318;2023-07-13T01:54:02;94741.78;;;19.91;100.00
59009;BME280;44794;42.652;23.318;2023-07-13T01:56:28;94742.75;;;19.82;100.00
59009;BME280;44794;42.652;23.318;2023-07-13T01:58:53;94746.22;;;19.74;100.00
59009;BME280;44794;42.652;23.318;2023-07-13T02:01:18;94742.25;;;19.62;100.00
59009;BME280;44794;42.652;23.318;2023-07-13T02:03:44;94745.03;;;19.53;100.00
59009;BME280;44794;42.652;23.318;2023-07-13T02:06:09;94747.69;;;19.61;100.00
59009;BME280;44794;42.652;23.318;2023-07-13T02:08:35;94747.00;;;19.59;100.00
59009;BME280;44794;42.652;23.318;2023-07-13T02:11:02;94749.81;;;19.58;100.00
59009;BME280;44794;42.652;23.318;2023-07-13T02:13:28;94751.28;;;19.52;100.00
59009;BME280;44794;42.652;23.318;2023-07-13T02:15:54;94747.84;;;19.52;100.00
59009;BME280;44794;42.652;23.318;2023-07-13T02:18:19;94750.78;;;19.49;100.00
59009;BME280;44794;42.652;23.318;2023-07-13T02:20:45;94752.91;;;19.45;100.00
59009;BME280;44794;42.652;23.318;2023-07-13T02:23:10;94749.63;;;19.51;100.00
59009;BME280;44794;42.652;23.318;2023-07-13T02:25:36;94749.97;;;19.40;100.00
59009;BME280;44794;42.652;23.318;2023-07-13T02:28:02;94757.19;;;19.38;100.00
59009;BME280;44794;42.652;23.318;2023-07-13T02:30:29;94765.09;;;19.46;100.00
59009;BME280;44794;42.652;23.318;2023-07-13T02:32:55;94772.88;;;19.56;100.00
59009;BME280;44794;42.652;23.318;2023-07-13T02:35:21;94764.81;;;19.57;100.00
59009;BME280;44794;42.652;23.318;2023-07-13T02:37:46;94757.41;;;19.61;100.00
59009;BME280;44794;42.652;23.318;2023-07-13T02:40:12;94759.22;;;19.60;100.00
59009;BME280;44794;42.652;23.318;2023-07-13T02:42:38;94761.16;;;19.58;100.00
59009;BME280;44794;42.652;23.318;2023-07-13T02:45:03;94759.56;;;19.57;100.00
59009;BME280;44794;42.652;23.318;2023-07-13T02:47:29;94761.00;;;19.52;100.00
59009;BME280;44794;42.652;23.318;2023-07-13T02:49:54;94750.00;;;19.56;100.00
59009;BME280;44794;42.652;23.318;2023-07-13T02:52:20;94761.84;;;19.60;100.00
59009;BME280;44794;42.652;23.318;2023-07-13T02:54:45;94759.56;;;19.57;100.00
59009;BME280;44794;42.652;23.318;2023-07-13T02:57:11;94760.16;;;19.51;100.00
59009;BME280;44794;42.652;23.318;2023-07-13T02:59:36;94751.91;;;19.38;100.00
59009;BME280;44794;42.652;23.318;2023-07-13T03:02:02;94756.03;;;19.33;100.00
59009;BME280;44794;42.652;23.318;2023-07-13T03:04:28;94753.88;;;19.28;100.00
59009;BME280;44794;42.652;23.318;2023-07-13T03:06:54;94760.94;;;19.28;100.00
59009;BME280;44794;42.652;23.318;2023-07-13T03:09:23;94765.91;;;19.31;100.00
59009;BME280;44794;42.652;23.318;2023-07-13T03:11:48;94772.00;;;19.31;100.00
59009;BME280;44794;42.652;23.318;2023-07-13T03:14:14;94774.97;;;19.44;100.00
59009;BME280;44794;42.652;23.318;2023-07-13T03:16:39;94768.44;;;19.56;100.00
59009;BME280;44794;42.652;23.318;2023-07-13T03:19:05;94774.19;;;19.75;100.00
59009;BME280;44794;42.652;23.318;2023-07-13T03:21:31;94778.06;;;19.97;100.00
59009;BME280;44794;42.652;23.318;2023-07-13T03:23:56;94784.97;;;20.22;100.00
59009;BME280;44794;42.652;23.318;2023-07-13T03:26:22;94788.06;;;20.49;99.07
59009;BME280;44794;42.652;23.318;2023-07-13T03:28:48;94779.28;;;20.64;99.62
59009;BME280;44794;42.652;23.318;2023-07-13T03:31:19;94788.16;;;20.95;97.93
59009;BME280;44794;42.652;23.318;2023-07-13T03:33:45;94790.19;;;21.23;95.96
59009;BME280;44794;42.652;23.318;2023-07-13T03:36:20;94795.63;;;21.30;93.63
59009;BME280;44794;42.652;23.318;2023-07-13T03:38:47;94792.97;;;21.30;93.60
59009;BME280;44794;42.652;23.318;2023-07-13T03:41:13;94799.22;;;21.37;95.25
59009;BME280;44794;42.652;23.318;2023-07-13T03:43:39;94802.16;;;21.42;93.70
59009;BME280;44794;42.652;23.318;2023-07-13T03:46:04;94800.94;;;21.52;92.54
59009;BME280;44794;42.652;23.318;2023-07-13T03:48:30;94801.75;;;21.61;92.21
59009;BME280;44794;42.652;23.318;2023-07-13T03:50:55;94799.72;;;21.71;91.64
59009;BME280;44794;42.652;23.318;2023-07-13T03:53:20;94798.69;;;21.80;90.90
59009;BME280;44794;42.652;23.318;2023-07-13T03:55:46;94804.19;;;21.92;89.97
59009;BME280;44794;42.652;23.318;2023-07-13T04:00:56;94800.56;;;22.16;88.58
59009;BME280;44794;42.652;23.318;2023-07-13T04:03:23;94795.66;;;22.27;88.11
59009;BME280;44794;42.652;23.318;2023-07-13T04:05:48;94794.38;;;22.46;88.56
59009;BME280;44794;42.652;23.318;2023-07-13T04:08:14;94801.06;;;22.56;87.94
59009;BME280;44794;42.652;23.318;2023-07-13T04:10:40;94798.53;;;22.77;87.16
59009;BME280;44794;42.652;23.318;2023-07-13T04:13:05;94796.34;;;22.95;86.40
59009;BME280;44794;42.652;23.318;2023-07-13T04:15:32;94789.63;;;23.07;85.98
59009;BME280;44794;42.652;23.318;2023-07-13T04:17:58;94801.44;;;23.19;85.64
59009;BME280;44794;42.652;23.318;2023-07-13T04:20:25;94793.94;;;23.22;85.52
59009;BME280;44794;42.652;23.318;2023-07-13T04:22:51;94800.41;;;23.20;84.87
59009;BME280;44794;42.652;23.318;2023-07-13T04:25:16;94804.25;;;23.32;82.36
59009;BME280;44794;42.652;23.318;2023-07-13T04:27:42;94807.63;;;23.26;82.24
59009;BME280;44794;42.652;23.318;2023-07-13T04:30:07;94823.69;;;23.24;82.07
59009;BME280;44794;42.652;23.318;2023-07-13T04:32:33;94812.94;;;23.26;83.84
59009;BME280;44794;42.652;23.318;2023-07-13T04:34:59;94815.94;;;23.23;85.74
59009;BME280;44794;42.652;23.318;2023-07-13T04:37:27;94811.66;;;23.36;84.53
59009;BME280;44794;42.652;23.318;2023-07-13T04:39:53;94815.19;;;23.43;85.26
59009;BME280;44794;42.652;23.318;2023-07-13T04:42:19;94812.53;;;23.57;84.68
59009;BME280;44794;42.652;23.318;2023-07-13T04:44:49;94827.59;;;23.71;84.70
59009;BME280;44794;42.652;23.318;2023-07-13T04:47:15;94822.78;;;23.96;83.54
59009;BME280;44794;42.652;23.318;2023-07-13T04:49:40;94830.47;;;24.26;82.16
59009;BME280;44794;42.652;23.318;2023-07-13T04:52:06;94830.34;;;24.55;78.97
59009;BME280;44794;42.652;23.318;2023-07-13T04:54:33;94838.00;;;24.64;76.17
59009;BME280;44794;42.652;23.318;2023-07-13T04:56:59;94846.22;;;24.69;73.79
59009;BME280;44794;42.652;23.318;2023-07-13T04:59:24;94846.59;;;24.66;73.40
59009;BME280;44794;42.652;23.318;2023-07-13T05:01:50;94855.13;;;24.83;72.67
59009;BME280;44794;42.652;23.318;2023-07-13T05:04:15;94858.84;;;25.09;69.59
59009;BME280;44794;42.652;23.318;2023-07-13T05:06:41;94860.78;;;25.21;67.35
59009;BME280;44794;42.652;23.318;2023-07-13T05:09:06;94856.13;;;26.17;62.25
59009;BME280;44794;42.652;23.318;2023-07-13T05:11:32;94867.13;;;27.64;56.44
59009;BME280;44794;42.652;23.318;2023-07-13T05:13:58;94875.19;;;28.89;55.46
59009;BME280;44794;42.652;23.318;2023-07-13T05:16:24;94885.22;;;30.73;49.90
59009;BME280;44794;42.652;23.318;2023-07-13T05:18:49;94890.06;;;32.15;46.33
59009;BME280;44794;42.652;23.318;2023-07-13T05:21:15;94908.69;;;34.26;41.07
59009;BME280;44794;42.652;23.318;2023-07-13T05:23:40;94903.78;;;35.09;38.70
59009;BME280;44794;42.652;23.318;2023-07-13T05:26:09;94896.66;;;34.12;39.40
59009;BME280;44794;42.652;23.318;2023-07-13T05:28:34;94894.25;;;33.78;39.79
59009;BME280;44794;42.652;23.318;2023-07-13T05:31:00;94902.22;;;33.24;40.78
59009;BME280;44794;42.652;23.318;2023-07-13T05:33:26;94892.09;;;34.13;39.34
59009;BME280;44794;42.652;23.318;2023-07-13T05:35:52;94892.78;;;34.46;38.53
59009;BME280;44794;42.652;23.318;2023-07-13T05:38:18;94907.69;;;36.63;35.46
59009;BME280;44794;42.652;23.318;2023-07-13T05:40:44;94910.31;;;36.99;33.74
59009;BME280;44794;42.652;23.318;2023-07-13T05:43:10;94919.88;;;37.46;33.52
59009;BME280;44794;42.652;23.318;2023-07-13T05:45:35;94915.56;;;38.10;32.41
59009;BME280;44794;42.652;23.318;2023-07-13T05:48:01;94908.41;;;38.58;31.34
59009;BME280;44794;42.652;23.318;2023-07-13T05:50:26;94918.56;;;39.54;30.12
59009;BME280;44794;42.652;23.318;2023-07-13T05:52:52;94919.28;;;40.31;28.76
59009;BME280;44794;42.652;23.318;2023-07-13T05:55:18;94920.19;;;41.39;27.53
59009;BME280;44794;42.652;23.318;2023-07-13T05:57:44;94923.41;;;41.96;26.17
59009;BME280;44794;42.652;23.318;2023-07-13T06:00:10;94937.53;;;42.48;25.28
59009;BME280;44794;42.652;23.318;2023-07-13T06:02:35;94927.09;;;42.82;25.43
59009;BME280;44794;42.652;23.318;2023-07-13T06:05:01;94908.72;;;42.55;25.57
59009;BME280;44794;42.652;23.318;2023-07-13T06:07:26;94893.13;;;39.69;28.08
59009;BME280;44794;42.652;23.318;2023-07-13T06:09:52;94901.03;;;41.02;27.10
59009;BME280;44794;42.652;23.318;2023-07-13T06:12:17;94896.03;;;39.06;28.21
59009;BME280;44794;42.652;23.318;2023-07-13T06:14:42;94904.22;;;40.90;26.06
59009;BME280;44794;42.652;23.318;2023-07-13T06:17:08;94919.22;;;42.03;24.47
59009;BME280;44794;42.652;23.318;2023-07-13T06:19:34;94922.97;;;41.89;24.55
59009;BME280;44794;42.652;23.318;2023-07-13T06:21:59;94916.25;;;41.26;25.38
59009;BME280;44794;42.652;23.318;2023-07-13T06:24:25;94919.69;;;40.15;26.79
59009;BME280;44794;42.652;23.318;2023-07-13T06:26:51;94915.41;;;39.32;27.73
59009;BME280;44794;42.652;23.318;2023-07-13T06:29:16;94913.16;;;40.16;26.59
59009;BME280;44794;42.652;23.318;2023-07-13T06:31:42;94919.16;;;41.35;26.19
59009;BME280;44794;42.652;23.318;2023-07-13T06:34:07;94919.75;;;41.68;25.71
59009;BME280;44794;42.652;23.318;2023-07-13T06:36:33;94921.38;;;42.65;25.04
59009;BME280;44794;42.652;23.318;2023-07-13T06:38:58;94918.84;;;42.95;24.56
59009;BME280;44794;42.652;23.318;2023-07-13T06:41:24;94914.53;;;42.04;24.79
59009;BME280;44794;42.652;23.318;2023-07-13T06:43:52;94915.16;;;41.27;24.76
59009;BME280;44794;42.652;23.318;2023-07-13T06:46:20;94898.56;;;40.82;26.24
59009;BME280;44794;42.652;23.318;2023-07-13T06:48:46;94904.97;;;40.73;26.25
59009;BME280;44794;42.652;23.318;2023-07-13T06:51:11;94897.69;;;40.11;27.13
59009;BME280;44794;42.652;23.318;2023-07-13T06:53:37;94899.25;;;40.92;26.33
59009;BME280;44794;42.652;23.318;2023-07-13T06:56:02;94910.19;;;42.03;24.79
59009;BME280;44794;42.652;23.318;2023-07-13T06:58:28;94909.22;;;41.62;24.42
59009;BME280;44794;42.652;23.318;2023-07-13T07:00:53;94905.88;;;41.47;25.16
59009;BME280;44794;42.652;23.318;2023-07-13T07:03:19;94907.97;;;41.73;24.82
59009;BME280;44794;42.652;23.318;2023-07-13T07:05:44;94901.81;;;41.44;24.94
59009;BME280;44794;42.652;23.318;2023-07-13T07:08:10;94918.66;;;43.05;23.45
59009;BME280;44794;42.652;23.318;2023-07-13T07:10:35;94921.59;;;41.73;23.77
59009;BME280;44794;42.652;23.318;2023-07-13T07:13:01;94905.13;;;43.49;22.97
59009;BME280;44794;42.652;23.318;2023-07-13T07:15:27;94909.06;;;43.56;22.81
59009;BME280;44794;42.652;23.318;2023-07-13T07:17:53;94908.06;;;43.52;22.32
59009;BME280;44794;42.652;23.318;2023-07-13T07:20:19;94910.50;;;44.41;21.57
59009;BME280;44794;42.652;23.318;2023-07-13T07:22:45;94913.56;;;45.00;21.42
59009;BME280;44794;42.652;23.318;2023-07-13T07:25:11;94911.19;;;44.77;20.72
59009;BME280;44794;42.652;23.318;2023-07-13T07:27:37;94900.81;;;44.35;21.07
59009;BME280;44794;42.652;23.318;2023-07-13T07:30:03;94908.66;;;43.85;21.04
59009;BME280;44794;42.652;23.318;2023-07-13T07:32:29;94897.56;;;43.68;21.79
59009;BME280;44794;42.652;23.318;2023-07-13T07:34:56;94899.88;;;45.17;20.52
59009;BME280;44794;42.652;23.318;2023-07-13T07:37:22;94901.25;;;46.04;19.79
59009;BME280;44794;42.652;23.318;2023-07-13T07:39:47;94909.31;;;46.43;19.21
59009;BME280;44794;42.652;23.318;2023-07-13T07:42:13;94899.47;;;45.41;20.14
59009;BME280;44794;42.652;23.318;2023-07-13T07:44:40;94893.16;;;45.65;20.13
59009;BME280;44794;42.652;23.318;2023-07-13T07:47:06;94889.81;;;45.85;19.85
59009;BME280;44794;42.652;23.318;2023-07-13T07:49:32;94878.50;;;45.70;20.35
59009;BME280;44794;42.652;23.318;2023-07-13T07:51:58;94877.97;;;44.18;21.31
59009;BME280;44794;42.652;23.318;2023-07-13T07:54:23;94878.44;;;44.42;21.20
59009;BME280;44794;42.652;23.318;2023-07-13T07:56:48;94873.59;;;44.47;21.23
59009;BME280;44794;42.652;23.318;2023-07-13T07:59:14;94873.25;;;43.17;22.62
59009;BME280;44794;42.652;23.318;2023-07-13T08:01:39;94873.31;;;44.87;21.47
59009;BME280;44794;42.652;23.318;2023-07-13T08:04:05;94869.72;;;45.68;20.83
59009;BME280;44794;42.652;23.318;2023-07-13T08:06:32;94864.03;;;45.22;20.58
59009;BME280;44794;42.652;23.318;2023-07-13T08:08:59;94855.34;;;45.29;20.87
59009;BME280;44794;42.652;23.318;2023-07-13T08:11:24;94847.03;;;44.48;21.61
59009;BME280;44794;42.652;23.318;2023-07-13T08:13:50;94843.28;;;41.87;23.78
59009;BME280;44794;42.652;23.318;2023-07-13T08:16:16;94830.44;;;42.59;23.63
59009;BME280;44794;42.652;23.318;2023-07-13T08:18:41;94838.06;;;42.36;24.10
59009;BME280;44794;42.652;23.318;2023-07-13T08:21:08;94833.09;;;41.42;24.67
59009;BME280;44794;42.652;23.318;2023-07-13T08:23:35;94828.66;;;40.73;25.40
59009;BME280;44794;42.652;23.318;2023-07-13T08:26:01;94829.22;;;40.46;25.29
59009;BME280;44794;42.652;23.318;2023-07-13T08:28:28;94818.25;;;39.43;27.56
59009;BME280;44794;42.652;23.318;2023-07-13T08:30:54;94822.84;;;38.56;27.59
59009;BME280;44794;42.652;23.318;2023-07-13T08:33:21;94810.06;;;37.68;28.22
59009;BME280;44794;42.652;23.318;2023-07-13T08:35:48;94811.88;;;36.78;30.40
59009;BME280;44794;42.652;23.318;2023-07-13T08:38:16;94812.78;;;36.28;31.82
59009;BME280;44794;42.652;23.318;2023-07-13T08:40:42;94799.59;;;35.90;31.88
59009;BME280;44794;42.652;23.318;2023-07-13T08:43:13;94800.69;;;35.48;32.36
59009;BME280;44794;42.652;23.318;2023-07-13T08:48:13;94792.03;;;34.83;32.63
59009;BME280;44794;42.652;23.318;2023-07-13T08:50:54;94795.81;;;34.35;33.69
59009;BME280;44794;42.652;23.318;2023-07-13T08:53:21;94796.16;;;34.22;33.32
59009;BME280;44794;42.652;23.318;2023-07-13T08:55:50;94793.63;;;34.10;34.43
59009;BME280;44794;42.652;23.318;2023-07-13T08:58:40;94794.09;;;33.86;34.29
59009;BME280;44794;42.652;23.318;2023-07-13T09:01:21;94794.72;;;33.93;34.89
59009;BME280;44794;42.652;23.318;2023-07-13T09:04:20;94803.31;;;34.11;34.69
59009;BME280;44794;42.652;23.318;2023-07-13T09:07:18;94808.47;;;34.13;35.39
59009;BME280;44794;42.652;23.318;2023-07-13T09:13:00;94825.59;;;33.85;34.26
59009;BME280;44794;42.652;23.318;2023-07-13T09:15:39;94814.66;;;33.92;35.80
59009;BME280;44794;42.652;23.318;2023-07-13T09:18:27;94826.22;;;33.71;35.38
59009;BME280;44794;42.652;23.318;2023-07-13T09:23:30;94815.75;;;33.74;35.92
59009;BME280;44794;42.652;23.318;2023-07-13T09:26:04;94814.97;;;33.95;36.64
59009;BME280;44794;42.652;23.318;2023-07-13T09:28:37;94822.97;;;34.07;34.70
59009;BME280;44794;42.652;23.318;2023-07-13T09:31:20;94821.75;;;33.98;36.20
59009;BME280;44794;42.652;23.318;2023-07-13T09:33:47;94812.19;;;34.07;36.96
59009;BME280;44794;42.652;23.318;2023-07-13T09:36:33;94825.84;;;34.22;36.35
59009;BME280;44794;42.652;23.318;2023-07-13T09:39:05;94815.88;;;34.22;36.03
59009;BME280;44794;42.652;23.318;2023-07-13T09:41:50;94809.72;;;34.05;34.71
59009;BME280;44794;42.652;23.318;2023-07-13T09:44:30;94808.22;;;34.14;36.74
59009;BME280;44794;42.652;23.318;2023-07-13T09:46:58;94796.47;;;34.04;35.55
59009;BME280;44794;42.652;23.318;2023-07-13T09:49:25;94803.09;;;33.75;35.53
59009;BME280;44794;42.652;23.318;2023-07-13T09:51:59;94798.53;;;33.59;37.48
59009;BME280;44794;42.652;23.318;2023-07-13T09:54:25;94783.53;;;33.47;37.67
59009;BME280;44794;42.652;23.318;2023-07-13T09:56:55;94787.72;;;33.38;38.25
59009;BME280;44794;42.652;23.318;2023-07-13T09:59:23;94780.84;;;33.63;37.77
59009;BME280;44794;42.652;23.318;2023-07-13T10:01:50;94780.84;;;33.63;37.67
59009;BME280;44794;42.652;23.318;2023-07-13T10:04:21;94780.00;;;33.46;37.77
59009;BME280;44794;42.652;23.318;2023-07-13T10:06:47;94757.91;;;33.82;40.45
59009;BME280;44794;42.652;23.318;2023-07-13T10:09:17;94761.59;;;33.76;36.53
59009;BME280;44794;42.652;23.318;2023-07-13T10:11:44;94750.06;;;33.80;36.68
59009;BME280;44794;42.652;23.318;2023-07-13T10:16:35;94759.84;;;33.86;36.40
59009;BME280;44794;42.652;23.318;2023-07-13T10:19:24;94756.09;;;34.09;35.93
59009;BME280;44794;42.652;23.318;2023-07-13T10:24:32;94758.84;;;33.92;35.09
59009;BME280;44794;42.652;23.318;2023-07-13T10:27:03;94758.56;;;33.94;34.86
59009;BME280;44794;42.652;23.318;2023-07-13T10:29:35;94749.38;;;33.90;35.39
59009;BME280;44794;42.652;23.318;2023-07-13T10:32:08;94741.56;;;33.88;34.04
59009;BME280;44794;42.652;23.318;2023-07-13T10:34:34;94744.03;;;33.95;35.52
59009;BME280;44794;42.652;23.318;2023-07-13T10:37:00;94740.81;;;33.93;37.02
59009;BME280;44794;42.652;23.318;2023-07-13T10:39:28;94747.00;;;33.93;29.72
59009;BME280;44794;42.652;23.318;2023-07-13T10:41:57;94742.41;;;33.94;26.89
59009;BME280;44794;42.652;23.318;2023-07-13T10:44:27;94747.56;;;34.17;29.09
59009;BME280;44794;42.652;23.318;2023-07-13T10:47:06;94750.06;;;34.02;26.84
59009;BME280;44794;42.652;23.318;2023-07-13T10:49:34;94745.88;;;34.11;26.98
59009;BME280;44794;42.652;23.318;2023-07-13T10:52:02;94731.34;;;34.12;26.74
59009;BME280;44794;42.652;23.318;2023-07-13T10:54:30;94733.47;;;34.10;27.19
59009;BME280;44794;42.652;23.318;2023-07-13T10:59:37;94723.81;;;34.40;26.88
59009;BME280;44794;42.652;23.318;2023-07-13T11:04:42;94716.53;;;34.41;26.58
59009;BME280;44794;42.652;23.318;2023-07-13T11:07:30;94718.72;;;34.43;26.50
59009;BME280;44794;42.652;23.318;2023-07-13T11:09:59;94709.59;;;34.49;26.99
59009;BME280;44794;42.652;23.318;2023-07-13T11:17:48;94696.75;;;34.30;26.58
59009;BME280;44794;42.652;23.318;2023-07-13T11:22:47;94685.69;;;34.58;26.88
59009;BME280;44794;42.652;23.318;2023-07-13T11:27:49;94699.03;;;34.69;26.98
59009;BME280;44794;42.652;23.318;2023-07-13T11:35:42;94671.88;;;34.86;27.99
59009;BME280;44794;42.652;23.318;2023-07-13T11:38:18;94675.97;;;34.93;27.16
59009;BME280;44794;42.652;23.318;2023-07-13T11:40:45;94678.41;;;34.95;26.78
59009;BME280;44794;42.652;23.318;2023-07-13T11:43:14;94679.38;;;35.10;27.06
59009;BME280;44794;42.652;23.318;2023-07-13T11:45:43;94674.41;;;34.97;27.62
59009;BME280;44794;42.652;23.318;2023-07-13T11:48:27;94676.50;;;34.90;26.36
59009;BME280;44794;42.652;23.318;2023-07-13T11:50:59;94675.91;;;35.15;27.13
59009;BME280;44794;42.652;23.318;2023-07-13T11:53:28;94677.56;;;35.25;27.14
59009;BME280;44794;42.652;23.318;2023-07-13T11:55:55;94672.34;;;35.09;26.45
59009;BME280;44794;42.652;23.318;2023-07-13T11:58:24;94664.81;;;35.11;25.88
59009;BME280;44794;42.652;23.318;2023-07-13T12:00:50;94661.25;;;35.06;25.61
59009;BME280;44794;42.652;23.318;2023-07-13T12:03:22;94652.44;;;34.89;26.53
59009;BME280;44794;42.652;23.318;2023-07-13T12:05:57;94649.00;;;34.98;26.93
59009;BME280;44794;42.652;23.318;2023-07-13T12:08:23;94650.63;;;34.99;27.25
59009;BME280;44794;42.652;23.318;2023-07-13T12:10:56;94654.28;;;35.15;26.34
59009;BME280;44794;42.652;23.318;2023-07-13T12:13:22;94647.78;;;35.16;26.45
59009;BME280;44794;42.652;23.318;2023-07-13T12:15:48;94652.19;;;35.26;26.45
59009;BME280;44794;42.652;23.318;2023-07-13T12:18:18;94644.78;;;35.12;25.74
59009;BME280;44794;42.652;23.318;2023-07-13T12:20:45;94642.06;;;35.02;27.09
59009;BME280;44794;42.652;23.318;2023-07-13T12:23:31;94638.88;;;35.10;27.91
59009;BME280;44794;42.652;23.318;2023-07-13T12:25:59;94623.81;;;35.24;27.15
59009;BME280;44794;42.652;23.318;2023-07-13T12:28:38;94624.69;;;35.44;29.42
59009;BME280;44794;42.652;23.318;2023-07-13T12:31:07;94619.06;;;35.46;29.02
59009;BME280;44794;42.652;23.318;2023-07-13T12:33:40;94621.28;;;35.59;30.86
59009;BME280;44794;42.652;23.318;2023-07-13T12:36:06;94614.03;;;35.79;30.88
59009;BME280;44794;42.652;23.318;2023-07-13T12:38:32;94613.47;;;35.67;29.33
59009;BME280;44794;42.652;23.318;2023-07-13T12:40:58;94614.56;;;35.66;28.78
59009;BME280;44794;42.652;23.318;2023-07-13T12:43:24;94614.31;;;35.68;28.88
59009;BME280;44794;42.652;23.318;2023-07-13T12:48:43;94609.00;;;35.98;29.58
59009;BME280;44794;42.652;23.318;2023-07-13T12:51:12;94603.34;;;35.99;28.94
59009;BME280;44794;42.652;23.318;2023-07-13T12:53:47;94602.25;;;36.15;29.27
59009;BME280;44794;42.652;23.318;2023-07-13T12:56:23;94602.00;;;36.31;30.17
59009;BME280;44794;42.652;23.318;2023-07-13T12:58:50;94598.22;;;36.22;29.06
59009;BME280;44794;42.652;23.318;2023-07-13T13:01:21;94599.84;;;36.33;29.60
59009;BME280;44794;42.652;23.318;2023-07-13T13:03:52;94597.16;;;36.53;29.35
59009;BME280;44794;42.652;23.318;2023-07-13T13:08:49;94594.97;;;36.35;27.58
59009;BME280;44794;42.652;23.318;2023-07-13T13:11:18;94588.78;;;36.45;28.86
59009;BME280;44794;42.652;23.318;2023-07-13T13:13:45;94579.84;;;36.49;29.55
59009;BME280;44794;42.652;23.318;2023-07-13T13:16:16;94586.28;;;36.38;27.93
59009;BME280;44794;42.652;23.318;2023-07-13T13:18:42;94589.00;;;36.18;28.39
59009;BME280;44794;42.652;23.318;2023-07-13T13:21:10;94583.03;;;36.31;27.59
59009;BME280;44794;42.652;23.318;2023-07-13T13:23:36;94583.88;;;36.27;28.93
59009;BME280;44794;42.652;23.318;2023-07-13T13:26:02;94574.94;;;36.36;28.04
59009;BME280;44794;42.652;23.318;2023-07-13T13:28:29;94580.34;;;36.31;28.09
59009;BME280;44794;42.652;23.318;2023-07-13T13:30:54;94581.19;;;36.42;27.78
59009;BME280;44794;42.652;23.318;2023-07-13T13:33:21;94575.78;;;36.52;28.16
59009;BME280;44794;42.652;23.318;2023-07-13T13:35:47;94578.75;;;36.40;27.05